Flag for France

Past Weather in 43°24'05.8"N, 3°42'00.4"E, France — Yesterday and Last 2 Weeks

Currently: 66 °F. Sunny. (Weather station: Montpellier Airport, France). See more current weather

Past Weather in 43°24'05.8"N, 3°42'00.4"E — Graph

°F

43°24'05.8"N, 3°42'00.4"E Temperature Yesterday

Maximum temperature yesterday: 72 °F (at 11:00 am)
Minimum temperature yesterday: 61 °F (at 4:30 am)
Average temperature yesterday: 66 °F

High & Low Weather Summary for the Past Weeks

 TemperatureHumidityPressure
High77 °F (May 23, 5:00 pm)100% (May 14, 6:00 pm)30.12 "Hg (May 14, 6:00 pm)
Low48 °F (May 17, 5:30 am)30% (May 23, 5:00 pm)29.65 "Hg (May 14, 6:00 pm)
Average64 °F74%29.91 "Hg
* Reported May 13 8:00 am — May 28 8:00 am, 43°24'05.8"N, 3°42'00.4"E. Weather by CustomWeather, © 2024

Note: Actual official high and low records may vary slightly from our data, if they occured in-between our weather recording intervals... More about our weather records

43°24'05.8"N, 3°42'00.4"E Weather History for the Previous 24 Hours

Scroll right to see more
 ConditionsComfort  
Time TempWeatherWind HumidityBarometerVisibility
8:00 am
Tue, May 28
63 °FSunny.7 mph64%30.12 "Hg10 mi
7:30 am61 °FSunny.8 mph72%30.12 "Hg10 mi
7:00 am59 °FSunny.6 mph77%30.12 "Hg10 mi
6:30 am57 °FSunny.9 mph77%30.12 "Hg10 mi
6:00 am59 °FClear.9 mph72%30.12 "Hg10 mi
5:30 am59 °FClear.10 mph72%30.12 "Hg10 mi
5:00 am59 °FClear.9 mph72%30.12 "Hg10 mi
4:30 am59 °FClear.12 mph72%30.12 "Hg10 mi
4:00 am59 °FClear.10 mph72%30.12 "Hg10 mi
3:00 am57 °FClear.2 mph72%30.12 "Hg10 mi
2:30 am61 °FClear.7 mph68%30.12 "Hg10 mi
2:00 am61 °FClear.3 mph63%30.12 "Hg10 mi
1:30 am61 °FClear.8 mph68%30.12 "Hg10 mi
1:00 am61 °FClear.10 mph68%30.12 "Hg10 mi
12:30 am63 °FClear.13 mph64%30.12 "Hg10 mi
12:00 am63 °FClear.8 mph64%30.12 "Hg10 mi
11:30 pm
Mon, May 27
63 °FClear.8 mph68%30.12 "Hg10 mi
11:00 pm64 °FClear.6 mph64%30.12 "Hg10 mi
10:30 pm63 °FClear.5 mph68%30.12 "Hg10 mi
10:00 pm66 °FClear.9 mph60%30.09 "Hg10 mi
9:30 pm66 °FClear.5 mph64%30.09 "Hg10 mi
9:00 pm66 °FSunny.3 mph73%30.09 "Hg10 mi
8:30 pm66 °FSunny.No wind78%30.09 "Hg10 mi
8:00 pm66 °FSunny.1 mph78%30.09 "Hg10 mi
7:30 pm68 °FSunny.2 mph73%30.09 "Hg10 mi
7:00 pm66 °FPassing clouds.3 mph83%30.07 "HgN/A
6:30 pm66 °FBroken clouds.5 mph78%30.07 "HgN/A
6:00 pm66 °FSunny.3 mph78%30.09 "Hg10 mi
5:30 pm64 °FOvercast.6 mph83%30.07 "HgN/A
5:00 pm64 °FDrizzle. Cloudy.8 mph88%30.07 "HgN/A
4:00 pm66 °FDrizzle. Mostly cloudy.9 mph88%30.07 "HgN/A
3:30 pm66 °FDrizzle. Mostly cloudy.7 mph88%30.07 "HgN/A
3:00 pm68 °FOvercast.3 mph83%30.07 "HgN/A
2:30 pm68 °FDrizzle. Overcast.5 mph83%30.07 "HgN/A
2:00 pm66 °FDrizzle. Mostly cloudy.7 mph88%30.07 "HgN/A
1:00 pm70 °FOvercast.7 mph78%30.07 "HgN/A
12:30 pm70 °FPartly sunny.8 mph78%30.09 "HgN/A
12:00 pm72 °FPartly sunny.8 mph73%30.09 "HgN/A
11:30 am70 °FPartly sunny.7 mph78%30.09 "HgN/A
11:00 am72 °FBroken clouds.7 mph73%30.07 "HgN/A
10:30 am70 °FBroken clouds.6 mph78%30.09 "HgN/A
10:00 am68 °FMostly cloudy.7 mph83%30.09 "HgN/A
9:00 am66 °FMostly cloudy.8 mph88%30.07 "HgN/A
Weather by CustomWeather, © 2024

See weather overview